Jalalabad Airport
OAJL : now visible

Airfield :











YOU CAN JOIN US ON...

 
LOGIN :

Register | Disclaimer

   EN    FR    IT 

 









Legend :    VFR   Marginal VFR   IFR   Intensive IFR   Very Intensive IFR
Visi :
Ceiling :
>= 8 km
>= 3000ft
5 to 8 km
1000 to 3000 ft
1500m to 5 km
500 to 1000 ft
800 to 1500m
200 to 500 ft
< 800m
< 200 ft
Symbols :   Thunderstorms  Fog  Heavy snow  Heavy precipitations  Wind > 20 kt







- Airport Elevation : 1814 ft
- IATA code : JAA


OAJL - Jalalabad

METAR N/A
TAF TAF OAJL
Valid from the 21 at 00:00 until the 22 at 06:00 UTC


210000Z 2100/2206 VRB06KT 9999 SCT100 QNH2975INS
BECMG 2112/2113 11009KT 9000 -SHRA VCTS SCT080CB QNH2981INS
BECMG 2119/2120 VRB06KT 9999 NSW SKC QNH2983INS TX31/2111Z TN17/2200Z
OAKX FIR / Asia



MET'MAP, your aeronautical weather chart ! - Copyright ORBIFLY December 2007 - Disclaimer

ORBIFLY MET'MAP TEAM :

Programming & Development : Alexandra Zaïnal
Concept & Development : Baudouin d'Aumeries
Co-Development & Prog : Marc-Olivier Méhu
Technical & hardware support : Manuel Goepfert

Contact : metmap@orbifly.com




SOURCES & CREDITS :

   NOAA       Earth
Advisory